Floriano, Brazil
Current Conditions -  °F | °C
As of 9:00 PM on Monday 22 Dec 2014 (Local Time) from SBTE Reporting Station
Clear Clear  
Wind Chill: 86°   Ceiling: Unl
Heat Index: 89°   Visibility: 6mi
Dew Point: 68°   Wind: 5mph
Humidity: 55%   Direction: 330°NNW
Pressure: 29.8"   Gusts: NA
Location:  6.77°S, 43.02°W
Report Text: SBTE 230000Z 33004KT CAVOK 30/20 Q1009
Loading
Personal Weather Stations






























Interactive Weather Map New forecast layout! Learn more

10-Day Weather Forecast

Advertisements
Track Severe Weather on mobile